Time;durP1;ratioP1;P1;durP2;ratioP2;P2;SDS_P1;SDS_P2;PMS_P1;PMS_P2;Temp;Humidity;BMP_temperature;BMP_pressure;BME280_temperature;BME280_humidity;BME280_pressure;Samples;Min_cycle;Max_cycle;Signal;HPM_P1;HPM_P2
2022/04/20 00:00:47;;;;;;;1283.22;999.90;;;12.60;99.90;;;;;;5077490;28;20216;-68
2022/04/20 00:03:13;;;;;;;1286.55;999.90;;;12.50;99.90;;;;;;5095530;28;20195;-68
2022/04/20 00:05:39;;;;;;;1286.60;999.90;;;12.50;99.90;;;;;;5077198;28;20192;-68
2022/04/20 00:08:05;;;;;;;1284.05;999.90;;;12.50;99.90;;;;;;5077538;28;20211;-68
2022/04/20 00:10:31;;;;;;;1280.40;999.90;;;12.60;99.90;;;;;;5060608;28;20188;-68
2022/04/20 00:12:58;;;;;;;1278.45;999.90;;;12.70;99.90;;;;;;5059979;28;20276;-69
2022/04/20 00:15:24;;;;;;;1282.67;999.90;;;12.60;99.90;;;;;;5041793;28;20296;-68
2022/04/20 00:17:50;;;;;;;1282.07;999.90;;;12.50;99.90;;;;;;5076443;28;20634;-68
2022/04/20 00:20:16;;;;;;;1281.07;999.90;;;12.40;99.90;;;;;;5077350;28;20589;-69
2022/04/20 00:22:42;;;;;;;1276.27;999.90;;;12.30;99.90;;;;;;5042834;28;20216;-70
2022/04/20 00:25:08;;;;;;;1283.70;999.90;;;12.30;99.90;;;;;;5077004;28;20181;-70
2022/04/20 00:27:35;;;;;;;1276.60;999.90;;;12.20;99.90;;;;;;5060516;28;20221;-70
2022/04/20 00:30:05;;;;;;;1284.60;999.90;;;12.20;99.90;;;;;;5092470;28;20195;-72
2022/04/20 00:32:31;;;;;;;1277.57;999.90;;;12.10;99.90;;;;;;5094988;28;20279;-68
2022/04/20 00:34:57;;;;;;;1277.63;999.90;;;12.10;99.90;;;;;;5094197;28;20630;-72
2022/04/20 00:37:23;;;;;;;1272.30;999.90;;;12.10;99.90;;;;;;5084328;28;20264;-68
2022/04/20 00:39:49;;;;;;;1273.80;999.90;;;12.10;99.90;;;;;;5094240;28;20200;-68
2022/04/20 00:42:18;;;;;;;1281.80;999.90;;;12.00;99.90;;;;;;5094616;28;20259;-68
2022/04/20 00:44:44;;;;;;;1277.33;999.90;;;12.00;99.90;;;;;;5076877;28;20196;-67
2022/04/20 00:47:10;;;;;;;1276.50;999.90;;;11.90;99.90;;;;;;5076871;28;20189;-67
2022/04/20 00:49:36;;;;;;;1280.87;999.90;;;11.90;99.90;;;;;;5075490;28;20192;-68
2022/04/20 00:52:03;;;;;;;1283.47;999.90;;;11.80;99.90;;;;;;5076379;28;20318;-67
2022/04/20 00:54:29;;;;;;;1286.53;999.90;;;11.70;99.90;;;;;;5094615;28;20217;-68
2022/04/20 00:56:55;;;;;;;1291.07;999.90;;;11.70;99.90;;;;;;5093162;28;20196;-67
2022/04/20 00:59:24;;;;;;;1291.83;999.90;;;11.70;99.90;;;;;;5076503;28;20531;-68
2022/04/20 01:01:51;;;;;;;1295.43;999.90;;;11.70;99.90;;;;;;5075671;28;20196;-68
2022/04/20 01:04:17;;;;;;;1290.60;999.90;;;11.70;99.90;;;;;;5094295;28;20196;-67
2022/04/20 01:06:43;;;;;;;1288.83;999.90;;;11.60;99.90;;;;;;5072965;28;20185;-67
2022/04/20 01:09:09;;;;;;;1295.87;999.90;;;11.60;99.90;;;;;;5086116;28;20197;-67
2022/04/20 01:11:35;;;;;;;1290.73;999.90;;;11.60;99.90;;;;;;5076186;28;20604;-68
2022/04/20 01:14:01;;;;;;;1298.40;999.90;;;11.60;99.90;;;;;;5074525;28;20260;-69
2022/04/20 01:16:27;;;;;;;1295.93;999.90;;;11.50;99.90;;;;;;5091623;28;20541;-67
2022/04/20 01:18:53;;;;;;;1293.50;999.90;;;11.50;99.90;;;;;;5074996;28;20193;-70
2022/04/20 01:21:19;;;;;;;1303.90;999.90;;;11.40;99.90;;;;;;5033488;28;20194;-68
2022/04/20 01:23:45;;;;;;;1301.80;999.90;;;11.40;99.90;;;;;;5094013;28;20212;-68
2022/04/20 01:26:11;;;;;;;1309.53;999.90;;;11.40;99.90;;;;;;5093797;28;20231;-68
2022/04/20 01:28:43;;;;;;;1298.73;999.90;;;11.40;99.90;;;;;;5066841;28;20273;-69
2022/04/20 01:31:13;;;;;;;1296.10;999.90;;;11.40;99.90;;;;;;5074652;28;20576;-67
2022/04/20 01:33:39;;;;;;;1300.07;999.90;;;11.40;99.90;;;;;;5092929;28;20219;-68
2022/04/20 01:36:05;;;;;;;1293.87;999.90;;;11.40;99.90;;;;;;5092557;28;20243;-67
2022/04/20 01:38:31;;;;;;;1299.23;999.90;;;11.30;99.90;;;;;;5092549;28;20230;-68
2022/04/20 01:40:56;;;;;;;1303.37;999.90;;;11.30;99.90;;;;;;5080310;28;20307;-67
2022/04/20 01:43:22;;;;;;;1306.77;999.90;;;11.20;99.90;;;;;;5059418;28;20280;-68
2022/04/20 01:45:48;;;;;;;1318.47;999.90;;;11.10;99.90;;;;;;5093881;28;20203;-68
2022/04/20 01:48:14;;;;;;;1307.07;999.90;;;11.10;99.90;;;;;;5058806;28;20222;-67
2022/04/20 01:51:46;;;;;;;1305.93;999.90;;;11.10;99.90;;;;;;5075516;28;20708;-68
2022/04/20 01:53:25;;;;;;;1303.97;999.90;;;11.10;99.90;;;;;;5093877;28;20197;-67
2022/04/20 01:55:51;;;;;;;1307.87;999.90;;;11.00;99.90;;;;;;5091681;28;20212;-68
2022/04/20 01:58:16;;;;;;;1300.97;999.90;;;11.00;99.90;;;;;;5075704;28;20211;-67
2022/04/20 02:00:42;;;;;;;1293.80;999.90;;;11.00;99.90;;;;;;5074985;28;20207;-67
2022/04/20 02:03:07;;;;;;;1302.70;999.90;;;10.90;99.90;;;;;;5075509;28;20229;-67
2022/04/20 02:05:33;;;;;;;1300.00;999.90;;;10.90;99.90;;;;;;5057754;28;20196;-67
2022/04/20 02:07:59;;;;;;;1299.43;999.90;;;10.90;99.90;;;;;;5075587;28;20189;-68
2022/04/20 02:10:25;;;;;;;1305.20;999.90;;;10.80;99.90;;;;;;5075712;28;20266;-68
2022/04/20 02:12:50;;;;;;;1301.07;999.90;;;10.70;99.90;;;;;;5075013;28;20224;-68
2022/04/20 02:15:16;;;;;;;1306.00;999.90;;;10.70;99.90;;;;;;5071532;28;20216;-70
2022/04/20 02:17:42;;;;;;;1301.67;999.90;;;10.70;99.90;;;;;;5055971;28;20210;-68
2022/04/20 02:20:08;;;;;;;1290.90;999.90;;;10.70;99.90;;;;;;5075300;28;20230;-68
2022/04/20 02:22:34;;;;;;;1287.43;999.90;;;10.70;99.90;;;;;;5074798;28;20272;-68
2022/04/20 02:25:00;;;;;;;1300.47;999.90;;;10.70;99.90;;;;;;5091788;28;20212;-67
2022/04/20 02:27:26;;;;;;;1308.17;999.90;;;10.70;99.90;;;;;;5074983;28;20189;-68
2022/04/20 02:29:52;;;;;;;1303.43;999.90;;;10.60;99.90;;;;;;5092848;28;20180;-68
2022/04/20 02:32:18;;;;;;;1310.20;999.90;;;10.60;99.90;;;;;;5093315;28;20176;-69
2022/04/20 02:34:44;;;;;;;1310.97;999.90;;;10.60;99.90;;;;;;5061443;28;20217;-66
2022/04/20 02:37:10;;;;;;;1313.20;999.90;;;10.60;99.90;;;;;;5074856;28;20612;-67
2022/04/20 02:39:37;;;;;;;1309.63;999.90;;;10.60;99.90;;;;;;5078106;28;20231;-67
2022/04/20 02:42:07;;;;;;;1314.20;999.90;;;10.50;99.90;;;;;;5084017;28;20272;-67
2022/04/20 02:44:33;;;;;;;1311.67;999.90;;;10.50;99.90;;;;;;5061476;28;20271;-67
2022/04/20 02:46:59;;;;;;;1309.47;999.90;;;10.50;99.90;;;;;;5040261;28;20185;-67
2022/04/20 02:49:25;;;;;;;1313.93;999.90;;;10.60;99.90;;;;;;5053088;28;20214;-68
2022/04/20 02:51:50;;;;;;;1319.83;999.90;;;10.60;99.90;;;;;;5073293;28;20196;-69
2022/04/20 02:54:16;;;;;;;1314.93;999.90;;;10.60;99.90;;;;;;5074835;28;20188;-68
2022/04/20 02:56:42;;;;;;;1318.37;999.90;;;10.50;99.90;;;;;;5092023;28;20200;-67
2022/04/20 02:59:08;;;;;;;1315.50;999.90;;;10.40;99.90;;;;;;5092327;28;20306;-66
2022/04/20 03:01:33;;;;;;;1314.30;999.90;;;10.40;99.90;;;;;;5057822;28;20188;-67
2022/04/20 03:03:59;;;;;;;1312.90;999.90;;;10.30;99.90;;;;;;5058889;28;20189;-67
2022/04/20 03:06:28;;;;;;;1313.67;999.90;;;10.40;99.90;;;;;;5071695;28;20672;-67
2022/04/20 03:08:55;;;;;;;1317.80;999.90;;;10.30;99.90;;;;;;5091151;28;20318;-67
2022/04/20 03:11:21;;;;;;;1320.10;999.90;;;10.30;99.90;;;;;;5092443;28;20644;-67
2022/04/20 03:13:47;;;;;;;1326.43;999.90;;;10.10;99.90;;;;;;5073982;28;20255;-67
2022/04/20 03:16:13;;;;;;;1329.93;999.90;;;10.10;99.90;;;;;;5057692;28;20244;-67
2022/04/20 03:18:39;;;;;;;1331.83;999.90;;;10.10;99.90;;;;;;5091774;28;20195;-68
2022/04/20 03:21:05;;;;;;;1334.13;999.90;;;10.00;99.90;;;;;;5092263;28;20188;-69
2022/04/20 03:23:30;;;;;;;1333.73;999.90;;;10.00;99.90;;;;;;5073271;28;20199;-67
2022/04/20 03:25:56;;;;;;;1333.33;999.90;;;10.00;99.90;;;;;;5092032;28;20249;-68
2022/04/20 03:28:22;;;;;;;1340.30;999.90;;;10.00;99.90;;;;;;5065903;28;20185;-68
2022/04/20 03:30:48;;;;;;;1332.83;999.90;;;10.00;99.90;;;;;;5079918;28;20613;-69
2022/04/20 03:33:14;;;;;;;1336.40;999.90;;;10.00;99.90;;;;;;5061566;28;20191;-68
2022/04/20 03:35:40;;;;;;;1345.37;999.90;;;10.00;99.90;;;;;;5084763;28;20240;-68
2022/04/20 03:38:07;;;;;;;1350.90;999.90;;;9.90;99.90;;;;;;5094612;28;20185;-68
2022/04/20 03:40:33;;;;;;;1347.37;999.90;;;9.90;99.90;;;;;;5067921;28;20647;-68
2022/04/20 03:42:59;;;;;;;1354.03;999.90;;;9.80;99.90;;;;;;5071207;28;20193;-68
2022/04/20 03:45:25;;;;;;;1355.43;999.90;;;9.90;99.90;;;;;;5067594;28;20203;-68
2022/04/20 03:47:50;;;;;;;1357.43;999.90;;;9.80;99.90;;;;;;5095816;28;20656;-68
2022/04/20 03:50:17;;;;;;;1357.33;999.90;;;9.90;99.90;;;;;;5096146;28;20552;-68
2022/04/20 03:52:42;;;;;;;1364.43;999.90;;;9.80;99.90;;;;;;5095673;28;20257;-68
2022/04/20 03:55:09;;;;;;;1359.70;999.90;;;9.80;99.90;;;;;;5077237;28;20688;-68
2022/04/20 03:57:34;;;;;;;1366.07;999.90;;;9.80;99.90;;;;;;5095845;28;20216;-67
2022/04/20 04:00:00;;;;;;;1363.87;999.90;;;9.80;99.90;;;;;;5095572;28;20220;-67
2022/04/20 04:02:26;;;;;;;1370.43;999.90;;;9.80;99.90;;;;;;5095688;28;20272;-67
2022/04/20 04:04:52;;;;;;;1377.43;999.90;;;9.70;99.90;;;;;;5095693;28;20199;-68
2022/04/20 04:07:17;;;;;;;1371.27;999.90;;;9.80;99.90;;;;;;5044189;28;20686;-68
2022/04/20 04:09:43;;;;;;;1374.93;999.90;;;9.70;99.90;;;;;;5095412;28;20181;-68
2022/04/20 04:12:09;;;;;;;1369.77;999.90;;;9.80;99.90;;;;;;5087890;28;20173;-68
2022/04/20 04:14:39;;;;;;;1370.63;999.90;;;9.70;99.90;;;;;;5092982;28;20313;-68
2022/04/20 04:17:05;;;;;;;1371.93;999.90;;;9.70;99.90;;;;;;5070867;28;20538;-68
2022/04/20 04:19:31;;;;;;;1370.60;999.90;;;9.60;99.90;;;;;;5095879;28;20191;-68
2022/04/20 04:21:57;;;;;;;1376.07;999.90;;;9.60;99.90;;;;;;5061599;28;20279;-67
2022/04/20 04:24:34;;;;;;;1381.83;999.90;;;9.60;99.90;;;;;;5077348;28;20192;-68
2022/04/20 04:27:00;;;;;;;1378.93;999.90;;;9.50;99.90;;;;;;5064404;28;20482;-68
2022/04/20 04:29:27;;;;;;;1381.30;999.90;;;9.50;99.90;;;;;;5076808;28;20662;-68
2022/04/20 04:31:53;;;;;;;1380.17;999.90;;;9.40;99.90;;;;;;5076492;28;20689;-69
2022/04/20 04:34:19;;;;;;;1391.33;999.90;;;9.40;99.90;;;;;;5074335;28;20181;-69
2022/04/20 04:36:44;;;;;;;1391.10;999.90;;;9.40;99.90;;;;;;5059760;28;20202;-68
2022/04/20 04:39:10;;;;;;;1391.30;999.90;;;9.40;99.90;;;;;;5060850;28;20642;-68
2022/04/20 04:41:36;;;;;;;1393.37;999.90;;;9.40;99.90;;;;;;5069817;28;20188;-68
2022/04/20 04:44:02;;;;;;;1399.03;999.90;;;9.40;99.90;;;;;;5076908;28;20181;-68
2022/04/20 04:49:11;;;;;;;1390.70;999.90;;;9.40;99.90;;;;;;5079786;28;20218;-68
2022/04/20 04:51:37;;;;;;;1396.03;999.90;;;9.50;99.90;;;;;;5076071;28;20200;-68
2022/04/20 04:54:03;;;;;;;1401.73;999.90;;;9.40;99.90;;;;;;5076377;28;20284;-68
2022/04/20 04:56:29;;;;;;;1399.20;999.90;;;9.50;99.90;;;;;;5042666;28;20220;-68
2022/04/20 04:58:54;;;;;;;1397.60;999.90;;;9.40;99.90;;;;;;5093566;28;20204;-68
2022/04/20 05:01:20;;;;;;;1395.53;999.90;;;9.50;99.90;;;;;;5076815;28;20523;-68
2022/04/20 05:03:45;;;;;;;1399.00;999.90;;;9.40;99.90;;;;;;5075397;28;20196;-68
2022/04/20 05:06:11;;;;;;;1396.30;999.90;;;9.40;99.90;;;;;;5076048;28;20654;-67
2022/04/20 05:08:37;;;;;;;1399.40;999.90;;;9.50;99.90;;;;;;5058852;28;20272;-68
2022/04/20 05:11:03;;;;;;;1395.67;999.90;;;9.50;99.90;;;;;;5059508;28;20265;-66
2022/04/20 05:13:28;;;;;;;1393.10;999.90;;;9.60;99.90;;;;;;5042237;28;20655;-69
2022/04/20 05:15:54;;;;;;;1396.17;999.90;;;9.80;99.90;;;;;;5094419;28;20633;-69
2022/04/20 05:18:20;;;;;;;1391.97;999.90;;;9.80;99.90;;;;;;5059574;28;20192;-69
2022/04/20 05:20:45;;;;;;;1388.73;999.90;;;10.10;99.90;;;;;;5088511;28;20208;-68
2022/04/20 05:23:11;;;;;;;1392.57;999.90;;;10.10;99.90;;;;;;5061975;28;20180;-66
2022/04/20 05:25:37;;;;;;;1384.80;999.90;;;10.10;99.90;;;;;;5059605;28;20574;-67
2022/04/20 05:28:03;;;;;;;1391.70;999.90;;;10.10;99.90;;;;;;5075775;28;20193;-66
2022/04/20 05:30:31;;;;;;;1387.03;999.90;;;10.10;99.90;;;;;;5080990;28;20195;-66
2022/04/20 05:32:57;;;;;;;1393.20;999.90;;;10.00;99.90;;;;;;5072922;28;20195;-65
2022/04/20 05:35:23;;;;;;;1396.87;999.90;;;9.90;99.90;;;;;;5092849;28;20216;-68
2022/04/20 05:43:16;;;;;;;1380.83;999.90;;;10.40;99.90;;;;;;5093883;28;20207;-67
2022/04/20 05:45:43;;;;;;;1386.23;999.90;;;10.30;99.90;;;;;;5074124;28;20277;-67
2022/04/20 05:48:10;;;;;;;1387.03;999.90;;;10.30;99.90;;;;;;5075573;28;20245;-65
2022/04/20 05:50:35;;;;;;;1388.37;999.90;;;10.40;99.90;;;;;;5057502;28;20543;-68
2022/04/20 05:53:01;;;;;;;1389.33;999.90;;;10.40;99.90;;;;;;5073297;28;20189;-68
2022/04/20 05:55:26;;;;;;;1394.90;999.90;;;10.40;99.90;;;;;;5069809;28;20204;-68
2022/04/20 05:57:53;;;;;;;1391.00;999.90;;;10.50;99.90;;;;;;5038669;28;20185;-68
2022/04/20 06:00:19;;;;;;;1378.93;999.90;;;10.60;99.90;;;;;;5062186;28;20560;-69
2022/04/20 06:02:44;;;;;;;1382.77;999.90;;;11.00;99.90;;;;;;5058973;28;20192;-68
2022/04/20 06:05:10;;;;;;;1382.93;999.90;;;10.90;99.90;;;;;;5041837;28;20638;-68
2022/04/20 06:07:36;;;;;;;1383.37;999.90;;;10.90;99.90;;;;;;5074860;28;20188;-67
2022/04/20 06:10:02;;;;;;;1386.17;999.90;;;10.90;99.90;;;;;;5073470;28;20181;-68
2022/04/20 06:12:27;;;;;;;1384.70;999.90;;;10.90;99.90;;;;;;5073546;28;20185;-66
2022/04/20 06:14:54;;;;;;;1387.47;999.90;;;10.90;99.90;;;;;;5092673;28;20568;-65
2022/04/20 06:17:19;;;;;;;1383.63;999.90;;;11.00;99.90;;;;;;5075063;28;20187;-67
2022/04/20 06:19:45;;;;;;;1381.27;999.90;;;11.00;99.90;;;;;;5075034;28;20188;-67
2022/04/20 06:22:11;;;;;;;1382.00;999.90;;;11.00;99.90;;;;;;5082263;28;20181;-67
2022/04/20 06:24:36;;;;;;;1382.23;999.90;;;11.00;99.90;;;;;;5058417;28;20258;-66
2022/04/20 06:27:02;;;;;;;1383.77;999.90;;;11.00;99.90;;;;;;5074632;28;20196;-67
2022/04/20 06:29:28;;;;;;;1381.17;999.90;;;11.20;99.90;;;;;;5092988;28;20200;-67
2022/04/20 06:31:54;;;;;;;1378.10;999.90;;;11.20;99.90;;;;;;5093087;28;20191;-66
2022/04/20 06:34:19;;;;;;;1385.97;999.90;;;11.10;99.90;;;;;;5092785;28;20584;-66
2022/04/20 06:36:45;;;;;;;1384.40;999.90;;;11.20;99.90;;;;;;5074611;28;20188;-67
2022/04/20 06:39:11;;;;;;;1391.67;999.90;;;11.10;99.90;;;;;;5040889;28;20192;-72
2022/04/20 06:41:36;;;;;;;1384.27;999.90;;;11.10;99.90;;;;;;5092760;28;20185;-65
2022/04/20 06:44:02;;;;;;;1386.77;999.90;;;11.20;99.90;;;;;;5065045;28;20655;-68
2022/04/20 06:46:28;;;;;;;1389.23;999.90;;;11.50;99.90;;;;;;5090069;28;20202;-65
2022/04/20 06:48:54;;;;;;;1382.60;999.90;;;11.50;99.90;;;;;;5074452;28;20233;-65
2022/04/20 06:51:20;;;;;;;1384.53;999.90;;;11.70;99.90;;;;;;5058078;28;20189;-65
2022/04/20 06:59:14;;;;;;;1361.85;999.90;;;12.50;99.90;;;;;;5092139;28;20718;-66
2022/04/20 07:01:40;;;;;;;1365.82;999.90;;;12.60;99.90;;;;;;5074382;28;20189;-66
2022/04/20 07:04:05;;;;;;;1369.55;999.90;;;12.50;99.90;;;;;;5067814;28;20188;-67
2022/04/20 07:06:32;;;;;;;1365.85;999.90;;;12.50;99.90;;;;;;5057198;28;20188;-67
2022/04/20 07:08:58;;;;;;;1370.75;999.90;;;12.40;99.90;;;;;;5073312;28;20268;-68
2022/04/20 07:11:28;;;;;;;1373.82;999.90;;;12.20;99.90;;;;;;5054799;28;20189;-66
2022/04/20 07:13:54;;;;;;;1370.22;999.90;;;12.30;99.90;;;;;;5085127;28;20555;-66
2022/04/20 07:16:20;;;;;;;1370.85;999.90;;;12.60;99.90;;;;;;5091920;28;20216;-66
2022/04/20 07:18:46;;;;;;;1379.43;999.90;;;12.90;99.90;;;;;;5083705;28;20263;-66
2022/04/20 07:21:11;;;;;;;1358.28;999.90;;;13.00;99.90;;;;;;5057545;28;20185;-66
2022/04/20 07:23:37;;;;;;;1359.35;999.90;;;12.90;99.90;;;;;;5074256;28;20192;-66
2022/04/20 07:26:03;;;;;;;1358.85;999.90;;;12.70;99.90;;;;;;5040962;28;20265;-66
2022/04/20 07:28:28;;;;;;;1365.80;999.90;;;12.50;99.90;;;;;;5057407;28;20203;-66
2022/04/20 07:30:54;;;;;;;1373.38;999.90;;;12.60;99.90;;;;;;5073454;28;20187;-66
2022/04/20 07:33:20;;;;;;;1367.60;999.90;;;12.80;99.90;;;;;;5073823;28;20185;-66
2022/04/20 07:35:46;;;;;;;1366.60;999.90;;;13.00;99.90;;;;;;5040370;28;20204;-66
2022/04/20 07:38:12;;;;;;;1361.40;999.90;;;13.30;99.90;;;;;;5092188;28;20571;-65
2022/04/20 07:40:38;;;;;;;1364.32;999.90;;;13.60;99.90;;;;;;5075108;28;20570;-66
2022/04/20 07:43:04;;;;;;;1363.82;999.90;;;13.20;99.90;;;;;;5091544;28;20196;-66
2022/04/20 07:45:32;;;;;;;1362.35;999.90;;;13.20;99.90;;;;;;5068816;28;20189;-66
2022/04/20 07:47:58;;;;;;;1365.50;999.90;;;13.50;99.90;;;;;;5058122;28;20185;-66
2022/04/20 07:50:25;;;;;;;1367.47;999.90;;;13.40;99.90;;;;;;5073951;28;20594;-66
2022/04/20 07:52:52;;;;;;;1361.13;999.90;;;13.80;99.90;;;;;;5092125;28;20242;-67
2022/04/20 07:55:20;;;;;;;1354.57;999.90;;;13.80;99.90;;;;;;5091599;28;20257;-66
2022/04/20 07:57:46;;;;;;;1346.88;999.90;;;13.60;99.90;;;;;;5092222;28;20193;-67
2022/04/20 08:00:14;;;;;;;1354.03;999.90;;;13.40;99.90;;;;;;5091627;28;20196;-68
2022/04/20 08:02:41;;;;;;;1350.80;999.90;;;13.20;99.90;;;;;;5073298;28;20173;-67
2022/04/20 08:05:08;;;;;;;1356.15;999.90;;;13.40;99.90;;;;;;5073857;28;20532;-67
2022/04/20 08:07:34;;;;;;;1344.43;999.90;;;13.50;99.90;;;;;;5085183;28;20193;-67
2022/04/20 08:10:01;;;;;;;1347.10;999.90;;;13.60;99.90;;;;;;5076242;28;20187;-68
2022/04/20 08:12:29;;;;;;;1348.10;999.90;;;13.90;99.90;;;;;;5066407;28;20185;-66
2022/04/20 08:14:55;;;;;;;1344.43;999.90;;;14.00;99.90;;;;;;5086245;28;20665;-66
2022/04/20 08:17:21;;;;;;;1358.45;999.90;;;14.30;99.90;;;;;;5059006;28;20176;-67
2022/04/20 08:19:46;;;;;;;1342.07;999.90;;;14.40;99.90;;;;;;5095165;28;20191;-67
2022/04/20 08:22:14;;;;;;;1342.32;999.90;;;14.60;99.90;;;;;;5067413;28;20216;-66
2022/04/20 08:24:43;;;;;;;1347.20;999.90;;;15.00;99.90;;;;;;5064978;28;20192;-65
2022/04/20 08:27:14;;;;;;;1330.68;999.90;;;15.00;99.90;;;;;;5095084;28;20189;-66
2022/04/20 08:29:40;;;;;;;1333.88;999.90;;;15.10;99.90;;;;;;5076908;28;20637;-66
2022/04/20 08:32:06;;;;;;;1329.85;999.90;;;15.20;99.90;;;;;;5085061;28;20200;-66
2022/04/20 08:34:31;;;;;;;1330.25;999.90;;;15.00;99.90;;;;;;5072486;28;20222;-65
2022/04/20 08:36:57;;;;;;;1327.43;999.90;;;14.80;99.90;;;;;;5076848;28;20676;-66
2022/04/20 08:39:23;;;;;;;1324.82;999.90;;;15.00;99.90;;;;;;5095356;28;20575;-66
2022/04/20 08:41:49;;;;;;;1327.32;999.90;;;15.00;99.90;;;;;;5077225;28;20275;-66
2022/04/20 08:44:27;;;;;;;1325.78;999.90;;;14.90;99.90;;;;;;5076656;28;20276;-66
2022/04/20 08:46:55;;;;;;;1321.40;999.90;;;15.30;99.90;;;;;;5094935;28;20335;-67
2022/04/20 08:49:21;;;;;;;1332.63;999.90;;;15.30;99.90;;;;;;5075813;28;20267;-66
2022/04/20 08:54:35;;;;;;;1320.20;999.90;;;16.10;99.90;;;;;;5094513;28;20308;-66
2022/04/20 08:57:16;;;;;;;1303.72;999.90;;;16.40;99.90;;;;;;5094022;28;20276;-66
2022/04/20 08:59:44;;;;;;;1297.22;999.90;;;17.10;99.90;;;;;;5094226;28;20279;-66
2022/04/20 09:02:12;;;;;;;1296.18;999.90;;;17.30;99.90;;;;;;5076672;28;20275;-66
2022/04/20 09:04:38;;;;;;;1283.22;999.90;;;17.40;99.90;;;;;;5094278;28;20234;-67
2022/04/20 09:07:10;;;;;;;1295.10;999.90;;;17.20;99.90;;;;;;5075745;28;20195;-67
2022/04/20 09:09:36;;;;;;;1293.60;999.90;;;16.40;99.90;;;;;;5075653;28;20525;-66
2022/04/20 09:12:26;;;;;;;1296.22;999.90;;;15.90;99.90;;;;;;5069869;28;20344;-66
2022/04/20 09:14:53;;;;;;;1301.32;999.90;;;15.80;99.90;;;;;;5089426;28;20213;-68
2022/04/20 09:17:22;;;;;;;1303.80;999.90;;;16.10;99.90;;;;;;5042279;28;20200;-67
2022/04/20 09:19:53;;;;;;;1302.07;999.90;;;16.00;99.90;;;;;;5075721;28;20180;-68
2022/04/20 09:22:23;;;;;;;1307.05;999.90;;;16.40;99.90;;;;;;5080518;28;20182;-69
2022/04/20 09:25:07;;;;;;;1292.93;999.90;;;16.40;99.90;;;;;;5093326;28;20189;-68
2022/04/20 09:27:38;;;;;;;1301.70;999.90;;;16.40;99.90;;;;;;5084760;28;20185;-67
2022/04/20 09:30:15;;;;;;;1310.07;999.90;;;15.90;99.90;;;;;;5088811;28;20188;-68
2022/04/20 09:32:45;;;;;;;1305.72;999.90;;;16.00;99.90;;;;;;5094355;28;20245;-67
2022/04/20 09:35:16;;;;;;;1295.90;999.90;;;16.40;99.90;;;;;;5075662;28;20223;-68
2022/04/20 09:37:43;;;;;;;1291.43;999.90;;;16.50;99.90;;;;;;5093028;28;20192;-68
2022/04/20 09:40:11;;;;;;;1306.75;999.90;;;16.30;99.90;;;;;;5093587;28;20223;-68
2022/04/20 09:42:39;;;;;;;1322.20;999.90;;;16.20;99.90;;;;;;5094100;28;20184;-67
2022/04/20 09:45:07;;;;;;;1309.35;999.90;;;16.20;99.90;;;;;;5058317;28;20211;-69
2022/04/20 09:50:26;;;;;;;1308.28;999.90;;;16.80;99.90;;;;;;5078421;28;20308;-67
2022/04/20 09:52:55;;;;;;;1300.35;999.90;;;16.80;99.90;;;;;;5065292;28;20189;-67
2022/04/20 09:55:30;;;;;;;1305.90;999.90;;;16.80;99.90;;;;;;5064464;28;20295;-67
2022/04/20 09:58:17;;;;;;;1302.10;999.90;;;16.90;99.90;;;;;;5093695;28;20238;-67
2022/04/20 10:00:51;;;;;;;1289.20;999.90;;;16.80;99.90;;;;;;5093796;28;20199;-67
2022/04/20 10:03:34;;;;;;;1301.03;999.90;;;17.00;99.90;;;;;;5093806;28;20179;-67
2022/04/20 10:06:00;;;;;;;1283.00;999.90;;;17.00;99.90;;;;;;5092755;28;20195;-67
2022/04/20 10:08:27;;;;;;;1291.35;999.90;;;16.80;99.90;;;;;;5093307;28;20185;-67
2022/04/20 10:10:55;;;;;;;1290.07;999.90;;;16.50;99.90;;;;;;5092924;28;20195;-68
2022/04/20 10:13:22;;;;;;;1296.38;999.90;;;16.30;99.90;;;;;;5092750;28;20188;-67
2022/04/20 10:16:12;;;;;;;1303.85;999.90;;;16.10;99.90;;;;;;5090019;28;20217;-68
2022/04/20 10:18:40;;;;;;;1307.40;999.90;;;16.10;99.90;;;;;;5081466;28;20181;-66
2022/04/20 10:21:11;;;;;;;1307.80;999.90;;;16.20;99.90;;;;;;5093374;28;20310;-66
2022/04/20 10:23:40;;;;;;;1301.57;999.90;;;16.70;99.90;;;;;;5093302;28;20188;-67
2022/04/20 10:26:10;;;;;;;1293.53;999.90;;;16.80;99.90;;;;;;5081987;28;20654;-66
2022/04/20 10:28:57;;;;;;;1298.28;999.90;;;16.70;99.90;;;;;;5093037;28;20182;-66
2022/04/20 10:32:07;;;;;;;1303.28;999.90;;;16.40;99.90;;;;;;5074825;28;20207;-66
2022/04/20 10:34:34;;;;;;;1294.38;999.90;;;16.50;99.90;;;;;;5010444;28;20306;-65
2022/04/20 10:37:05;;;;;;;1297.57;999.90;;;17.00;99.90;;;;;;5069816;28;20203;-68
2022/04/20 10:39:40;;;;;;;1297.13;999.90;;;17.00;99.90;;;;;;5091916;28;20208;-66
2022/04/20 10:42:16;;;;;;;1281.70;999.90;;;17.30;99.90;;;;;;5093014;28;20223;-65
2022/04/20 10:45:04;;;;;;;1295.78;999.90;;;17.60;99.90;;;;;;5092459;28;20208;-66
2022/04/20 10:47:34;;;;;;;1279.25;999.90;;;17.30;99.90;;;;;;5068023;28;20219;-68
2022/04/20 10:50:20;;;;;;;1284.50;999.90;;;17.20;99.90;;;;;;5079133;28;20279;-67
2022/04/20 10:53:06;;;;;;;1277.35;999.90;;;17.60;99.90;;;;;;5088606;28;20207;-67
2022/04/20 10:55:32;;;;;;;1287.70;999.90;;;17.40;99.90;;;;;;5055342;28;20220;-68
2022/04/20 10:58:03;;;;;;;1291.68;999.90;;;17.40;99.90;;;;;;5092366;28;20560;-68
2022/04/20 11:00:36;;;;;;;1262.35;999.90;;;17.70;99.90;;;;;;5077123;28;20708;-67
2022/04/20 11:03:07;;;;;;;1288.53;999.90;;;17.80;99.90;;;;;;5091112;28;20209;-68
2022/04/20 11:05:53;;;;;;;1292.30;999.90;;;17.50;99.90;;;;;;5091655;28;20570;-68
2022/04/20 11:08:20;;;;;;;1298.07;999.90;;;17.60;99.90;;;;;;5092630;28;20211;-66
2022/04/20 11:19:32;;;;;;;1288.70;999.90;;;17.60;99.90;;;;;;5067888;28;20603;-67
2022/04/20 11:22:08;;;;;;;1296.88;999.90;;;17.60;99.90;;;;;;5073422;28;20625;-66
2022/04/20 11:24:33;;;;;;;1289.63;999.90;;;17.50;99.90;;;;;;5073101;28;20184;-68
2022/04/20 11:26:59;;;;;;;1294.45;999.90;;;17.40;99.90;;;;;;5073727;28;20644;-66
2022/04/20 11:29:26;;;;;;;1293.05;999.90;;;17.70;99.90;;;;;;5092099;28;20218;-67
2022/04/20 11:31:58;;;;;;;1298.53;999.90;;;18.10;99.90;;;;;;5092109;28;20192;-68
2022/04/20 11:34:26;;;;;;;1296.38;999.90;;;17.90;99.90;;;;;;5091016;28;20184;-68
2022/04/20 11:36:53;;;;;;;1283.70;999.90;;;17.90;99.90;;;;;;5057937;28;20241;-68
2022/04/20 11:39:21;;;;;;;1286.38;999.90;;;18.20;99.90;;;;;;5056181;28;20180;-67
2022/04/20 11:41:49;;;;;;;1279.05;999.90;;;18.30;99.90;;;;;;5073910;28;20187;-67
2022/04/20 11:44:20;;;;;;;1289.35;999.90;;;18.20;99.90;;;;;;5092195;28;20513;-69
2022/04/20 11:46:46;;;;;;;1274.18;999.90;;;17.90;99.90;;;;;;5076860;28;20186;-67
2022/04/20 11:49:12;;;;;;;1272.97;999.90;;;17.70;99.90;;;;;;5087828;28;20188;-66
2022/04/20 11:51:43;;;;;;;1284.68;999.90;;;17.50;99.90;;;;;;5059822;28;20181;-66
2022/04/20 11:54:09;;;;;;;1291.93;999.90;;;17.70;99.90;;;;;;5077906;28;20250;-68
2022/04/20 11:56:37;;;;;;;1285.10;999.90;;;17.50;99.90;;;;;;5061189;28;20693;-68
2022/04/20 11:59:08;;;;;;;1288.45;999.90;;;17.70;99.90;;;;;;5077509;28;20281;-67
2022/04/20 12:01:36;;;;;;;1292.35;999.90;;;17.70;99.90;;;;;;5094031;28;20184;-66
2022/04/20 12:04:20;;;;;;;1297.40;999.90;;;17.50;99.90;;;;;;5059256;28;20219;-67
2022/04/20 12:06:57;;;;;;;1287.95;999.90;;;17.70;99.90;;;;;;5095792;28;20195;-65
2022/04/20 12:09:25;;;;;;;1293.03;999.90;;;17.60;99.90;;;;;;5095424;28;20191;-65
2022/04/20 12:11:57;;;;;;;1281.90;999.90;;;17.70;99.90;;;;;;5076859;28;20181;-65
2022/04/20 12:14:26;;;;;;;1294.30;999.90;;;17.60;99.90;;;;;;5094270;28;20894;-66
2022/04/20 12:16:57;;;;;;;1272.95;999.90;;;17.70;99.90;;;;;;5077283;28;20204;-65
2022/04/20 12:19:23;;;;;;;1284.45;999.90;;;17.90;99.90;;;;;;5077604;28;20192;-67
2022/04/20 12:21:50;;;;;;;1286.45;999.90;;;17.90;99.90;;;;;;5060498;28;20197;-68
2022/04/20 12:24:26;;;;;;;1280.85;999.90;;;17.90;99.90;;;;;;5077462;28;20188;-66
2022/04/20 12:26:54;;;;;;;1271.55;999.90;;;17.80;99.90;;;;;;5093963;28;20195;-69
2022/04/20 12:29:22;;;;;;;1281.15;999.90;;;17.70;99.90;;;;;;5077174;28;20553;-68
2022/04/20 12:31:49;;;;;;;1275.13;999.90;;;17.40;99.90;;;;;;5094361;28;20208;-66